Lyonsville, New York
Current Conditions -  °F | °C
As of 3:54 AM on Sunday 23 Nov 2014 (Local Time) from KMGJ Reporting Station
Overcast Overcast  
Wind Chill: 33°   Ceiling: 9000
Heat Index: 39°   Visibility: 10mi
Dew Point: 21°   Wind: 8mph
Humidity: 49%   Direction: 230°SW
Pressure: 30.13"   Gusts: NA
Location:  41.8083°N, 74.2318°W
Report Text: KMGJ 230854Z AUTO 23007KT 10SM OVC090 04/M06 A3013 RMK AO2 SLP206 T00391061 58003 TSNO
Loading
Personal Weather Stations






























Interactive Weather Map New forecast layout! Learn more

10-Day Weather Forecast

Advertisements
Track Severe Weather on mobile